Time;durP1;ratioP1;P1;durP2;ratioP2;P2;SDS_P1;SDS_P2;PMS_P1;PMS_P2;Temp;Humidity;BMP_temperature;BMP_pressure;BME280_temperature;BME280_humidity;BME280_pressure;Samples;Min_cycle;Max_cycle;Signal;HPM_P1;HPM_P2
2023/01/03 00:00:36;;;;;;;18.05;8.23;;;2.80;99.90;;;;;;4989990;28;20056;-80
2023/01/03 00:03:02;;;;;;;21.15;7.93;;;2.90;99.90;;;;;;4973813;28;20089;-78
2023/01/03 00:05:28;;;;;;;20.83;8.15;;;2.80;99.90;;;;;;4957499;28;20050;-82
2023/01/03 00:07:54;;;;;;;15.02;7.68;;;2.80;99.90;;;;;;4977493;28;20046;-77
2023/01/03 00:10:21;;;;;;;13.70;7.20;;;2.80;99.90;;;;;;4973764;28;20065;-78
2023/01/03 00:12:46;;;;;;;22.38;6.93;;;2.80;99.90;;;;;;4993681;28;20395;-78
2023/01/03 00:15:15;;;;;;;16.77;7.78;;;2.80;99.90;;;;;;4991100;28;20054;-78
2023/01/03 00:17:42;;;;;;;21.70;7.93;;;2.80;99.90;;;;;;4975608;28;20097;-88
2023/01/03 00:20:09;;;;;;;23.23;8.32;;;2.80;99.90;;;;;;4986802;28;20050;-78
2023/01/03 00:22:35;;;;;;;14.32;6.88;;;2.80;99.90;;;;;;4994324;28;20057;-78
2023/01/03 00:25:02;;;;;;;13.85;6.32;;;2.80;99.90;;;;;;4993354;28;20053;-79
2023/01/03 00:27:28;;;;;;;16.45;6.10;;;2.80;99.90;;;;;;4993662;28;20491;-78
2023/01/03 00:29:54;;;;;;;17.58;5.97;;;2.80;99.90;;;;;;4993131;28;20047;-78
2023/01/03 00:32:20;;;;;;;17.45;6.50;;;2.70;99.90;;;;;;4977453;28;20042;-81
2023/01/03 00:34:46;;;;;;;11.52;5.97;;;2.70;99.90;;;;;;4990477;28;20051;-84
2023/01/03 00:37:13;;;;;;;18.13;6.53;;;2.60;99.90;;;;;;4987030;28;20070;-80
2023/01/03 00:39:39;;;;;;;13.85;7.07;;;2.60;99.90;;;;;;4985108;28;20097;-78
2023/01/03 00:42:04;;;;;;;14.88;6.28;;;2.60;99.90;;;;;;4974942;28;20049;-77
2023/01/03 00:44:30;;;;;;;12.27;6.45;;;2.50;99.90;;;;;;4942714;28;20085;-78
2023/01/03 00:46:56;;;;;;;15.50;6.70;;;2.40;99.90;;;;;;4976655;28;20046;-77
2023/01/03 00:49:22;;;;;;;13.68;6.75;;;2.40;99.90;;;;;;4964322;28;20050;-78
2023/01/03 00:51:48;;;;;;;20.83;7.00;;;2.30;99.90;;;;;;4993165;28;20050;-78
2023/01/03 00:54:14;;;;;;;20.52;7.30;;;2.30;99.90;;;;;;4993917;28;20129;-79
2023/01/03 00:56:43;;;;;;;20.33;7.68;;;2.30;99.90;;;;;;4993735;28;20047;-79
2023/01/03 00:59:10;;;;;;;22.58;7.70;;;2.20;99.90;;;;;;4992989;28;20937;-78
2023/01/03 01:01:41;;;;;;;17.38;7.43;;;2.20;99.90;;;;;;4970777;28;20042;-78
2023/01/03 01:04:16;;;;;;;21.60;7.47;;;2.20;99.90;;;;;;4969479;28;20057;-78
2023/01/03 01:06:44;;;;;;;17.05;7.43;;;2.20;99.90;;;;;;4984051;28;20544;-79
2023/01/03 01:09:15;;;;;;;21.55;8.00;;;2.30;99.90;;;;;;4970426;28;20648;-78
2023/01/03 01:11:41;;;;;;;28.65;9.85;;;2.40;99.90;;;;;;4984326;28;20045;-78
2023/01/03 01:14:18;;;;;;;26.98;10.20;;;2.50;99.90;;;;;;4976956;28;20039;-79
2023/01/03 01:17:07;;;;;;;23.48;10.63;;;2.60;99.90;;;;;;4966468;28;20126;-78
2023/01/03 01:19:36;;;;;;;21.20;10.13;;;2.70;99.90;;;;;;4981380;28;20072;-78
2023/01/03 01:22:02;;;;;;;23.55;11.88;;;2.80;99.90;;;;;;4979161;28;20468;-77
2023/01/03 01:24:28;;;;;;;22.60;11.30;;;2.80;99.90;;;;;;4992656;28;20539;-77
2023/01/03 01:26:53;;;;;;;23.20;11.10;;;2.90;99.90;;;;;;4992494;28;20125;-84
2023/01/03 01:29:19;;;;;;;22.02;11.23;;;2.90;99.90;;;;;;4976478;28;20042;-77
2023/01/03 01:31:46;;;;;;;24.92;11.05;;;2.90;99.90;;;;;;4974105;28;21370;-78
2023/01/03 01:34:12;;;;;;;26.70;11.00;;;2.90;99.90;;;;;;4982743;28;20550;-78
2023/01/03 01:36:40;;;;;;;22.80;10.98;;;2.90;99.90;;;;;;4973925;28;20412;-77
2023/01/03 01:39:11;;;;;;;26.48;11.02;;;2.90;99.90;;;;;;4978108;28;20053;-78
2023/01/03 01:44:52;;;;;;;21.23;10.35;;;2.70;99.90;;;;;;4992274;28;20565;-80
2023/01/03 01:47:26;;;;;;;26.10;10.80;;;2.60;99.90;;;;;;5002030;28;20058;-78
2023/01/03 01:49:58;;;;;;;27.45;12.40;;;2.50;99.90;;;;;;4961283;28;20492;-80
2023/01/03 01:52:26;;;;;;;27.33;10.80;;;2.50;99.90;;;;;;4973374;28;20054;-80
2023/01/03 01:54:53;;;;;;;19.88;10.13;;;2.30;99.90;;;;;;4959448;28;20046;-78
2023/01/03 01:57:23;;;;;;;27.77;11.77;;;2.30;99.90;;;;;;4980061;28;20377;-77
2023/01/03 01:59:49;;;;;;;26.38;11.02;;;2.20;99.90;;;;;;4964100;28;20108;-78
2023/01/03 02:02:20;;;;;;;30.80;11.63;;;2.20;99.90;;;;;;4976895;28;20439;-77
2023/01/03 02:04:49;;;;;;;27.67;11.68;;;2.20;99.90;;;;;;4987867;28;20101;-78
2023/01/03 02:07:18;;;;;;;28.88;12.35;;;2.20;99.90;;;;;;4975750;28;20117;-77
2023/01/03 02:09:45;;;;;;;28.42;13.63;;;2.10;99.90;;;;;;4991958;28;20049;-77
2023/01/03 02:15:31;;;;;;;27.75;12.90;;;2.10;99.90;;;;;;4972722;28;20050;-78
2023/01/03 02:18:21;;;;;;;27.40;12.85;;;2.10;99.90;;;;;;4977052;28;20125;-77
2023/01/03 02:21:25;;;;;;;36.25;13.23;;;2.10;99.90;;;;;;4975778;28;20486;-79
2023/01/03 02:24:38;;;;;;;28.73;13.65;;;2.10;99.90;;;;;;4918112;29;20063;-78
2023/01/03 02:27:17;;;;;;;33.53;13.88;;;2.10;99.90;;;;;;4916647;29;20069;-78
2023/01/03 02:30:36;;;;;;;32.83;13.77;;;2.00;99.90;;;;;;4969460;28;20050;-78
2023/01/03 02:33:01;;;;;;;34.97;14.25;;;2.00;99.90;;;;;;4894293;29;20052;-82
2023/01/03 02:35:52;;;;;;;36.95;13.93;;;2.00;99.90;;;;;;4896581;29;20518;-76
2023/01/03 02:38:45;;;;;;;33.22;14.38;;;2.00;99.90;;;;;;4952439;28;20420;-76
2023/01/03 02:41:31;;;;;;;29.77;14.30;;;2.00;99.90;;;;;;4970508;28;20046;-78
2023/01/03 02:44:15;;;;;;;32.45;14.45;;;2.00;99.90;;;;;;4968434;28;20093;-76
2023/01/03 02:46:52;;;;;;;38.05;14.82;;;2.00;99.90;;;;;;4976107;28;20116;-77
2023/01/03 02:49:23;;;;;;;35.65;14.27;;;2.00;99.90;;;;;;4987467;28;20058;-76
2023/01/03 02:52:02;;;;;;;38.92;16.33;;;2.00;99.90;;;;;;4990581;28;20448;-76
2023/01/03 02:54:54;;;;;;;36.67;15.48;;;2.20;99.90;;;;;;4991647;28;20085;-77
2023/01/03 02:57:27;;;;;;;35.72;16.05;;;2.20;99.90;;;;;;4982795;28;20124;-76
2023/01/03 03:00:08;;;;;;;38.47;15.90;;;2.30;99.90;;;;;;4974741;28;20105;-76
2023/01/03 03:02:36;;;;;;;38.80;17.13;;;2.40;99.90;;;;;;4990707;28;20181;-76
2023/01/03 03:05:07;;;;;;;41.00;17.45;;;2.50;99.90;;;;;;4990943;28;20061;-79
2023/01/03 03:07:38;;;;;;;43.88;16.45;;;2.30;99.90;;;;;;4990924;28;20051;-76
2023/01/03 03:13:14;;;;;;;40.30;17.63;;;2.10;99.90;;;;;;4971419;28;20137;-79
2023/01/03 03:15:55;;;;;;;30.83;15.52;;;2.10;99.90;;;;;;4958289;28;20090;-80
2023/01/03 03:18:45;;;;;;;35.03;15.80;;;2.10;99.90;;;;;;4984261;28;20061;-79
2023/01/03 03:26:51;;;;;;;46.10;17.90;;;2.00;99.90;;;;;;4990132;28;20057;-82
2023/01/03 03:29:18;;;;;;;47.70;17.42;;;2.10;99.90;;;;;;4989329;28;20178;-81
2023/01/03 03:31:49;;;;;;;42.42;17.88;;;2.00;99.90;;;;;;4969421;28;20093;-78
2023/01/03 03:34:24;;;;;;;45.58;19.27;;;2.10;99.90;;;;;;4982274;28;20089;-80
2023/01/03 03:37:04;;;;;;;50.38;18.40;;;2.10;99.90;;;;;;4990229;28;20573;-76
2023/01/03 03:45:41;;;;;;;53.85;19.98;;;2.10;99.90;;;;;;4989759;28;20555;-77
2023/01/03 03:48:18;;;;;;;55.80;19.70;;;2.10;99.90;;;;;;4973494;28;20408;-76
2023/01/03 03:51:07;;;;;;;50.65;18.77;;;2.10;99.90;;;;;;4974219;28;20495;-79
2023/01/03 03:53:36;;;;;;;51.53;20.52;;;2.00;99.90;;;;;;4963256;28;20035;-79
2023/01/03 03:56:13;;;;;;;57.83;20.63;;;1.90;99.90;;;;;;4985700;28;20051;-77
2023/01/03 03:58:41;;;;;;;62.83;21.58;;;2.00;99.90;;;;;;4964910;28;20046;-80
2023/01/03 04:01:10;;;;;;;57.70;21.58;;;2.00;99.90;;;;;;4979080;28;20078;-77
2023/01/03 04:03:39;;;;;;;55.53;20.60;;;1.90;99.90;;;;;;4944826;28;20484;-77
2023/01/03 04:06:21;;;;;;;56.08;21.98;;;2.00;99.90;;;;;;4970636;28;20508;-77
2023/01/03 04:08:47;;;;;;;55.38;19.92;;;2.00;99.90;;;;;;4952074;28;20405;-77
2023/01/03 04:11:13;;;;;;;57.65;21.77;;;2.00;99.90;;;;;;4941343;28;20043;-77
2023/01/03 04:13:39;;;;;;;65.28;22.20;;;2.00;99.90;;;;;;4971740;28;20100;-77
2023/01/03 04:16:06;;;;;;;59.33;22.10;;;2.10;99.90;;;;;;4982091;28;20496;-77
2023/01/03 04:18:32;;;;;;;65.05;22.65;;;2.20;99.90;;;;;;4959701;28;20535;-77
2023/01/03 04:20:58;;;;;;;60.42;21.92;;;2.20;99.90;;;;;;4974557;28;20049;-77
2023/01/03 04:23:24;;;;;;;64.07;22.90;;;2.30;99.90;;;;;;4975614;28;20034;-77
2023/01/03 04:25:50;;;;;;;60.60;22.75;;;2.30;99.90;;;;;;4981757;28;20054;-78
2023/01/03 04:28:16;;;;;;;67.85;24.02;;;2.40;99.90;;;;;;4970882;28;20489;-78
2023/01/03 04:30:43;;;;;;;65.85;23.08;;;2.30;99.90;;;;;;4955015;28;20097;-77
2023/01/03 04:33:08;;;;;;;67.68;23.27;;;2.40;99.90;;;;;;4951559;28;20511;-77
2023/01/03 04:35:35;;;;;;;69.38;24.23;;;2.40;99.90;;;;;;4960841;28;20082;-77
2023/01/03 04:38:01;;;;;;;64.53;23.17;;;2.50;99.90;;;;;;4956687;28;20053;-78
2023/01/03 04:40:26;;;;;;;69.20;25.02;;;2.50;99.90;;;;;;4972820;28;20630;-77
2023/01/03 04:45:37;;;;;;;71.38;23.75;;;2.60;99.90;;;;;;4964535;28;20509;-77
2023/01/03 04:48:04;;;;;;;78.05;26.55;;;2.60;99.90;;;;;;4970532;28;20054;-77
2023/01/03 04:50:30;;;;;;;77.05;25.02;;;2.60;99.90;;;;;;4983227;28;20046;-77
2023/01/03 04:52:56;;;;;;;71.88;25.58;;;2.60;99.90;;;;;;4972922;28;20140;-77
2023/01/03 04:55:23;;;;;;;78.80;26.27;;;2.60;99.90;;;;;;4989170;28;20054;-82
2023/01/03 04:57:49;;;;;;;80.60;27.20;;;2.60;99.90;;;;;;4988852;28;20078;-77
2023/01/03 05:00:16;;;;;;;71.53;24.83;;;2.60;99.90;;;;;;4967674;28;20089;-77
2023/01/03 05:02:41;;;;;;;76.18;26.73;;;2.60;99.90;;;;;;4981745;28;20823;-77
2023/01/03 05:05:08;;;;;;;75.57;25.63;;;2.80;99.90;;;;;;4983247;28;20062;-77
2023/01/03 05:07:34;;;;;;;76.85;26.70;;;2.70;99.90;;;;;;4975059;28;20058;-77
2023/01/03 05:10:00;;;;;;;70.13;26.50;;;2.80;99.90;;;;;;4983549;28;20105;-77
2023/01/03 05:12:25;;;;;;;79.88;27.48;;;2.80;99.90;;;;;;4966219;28;20054;-79
2023/01/03 05:14:51;;;;;;;84.57;27.17;;;2.80;99.90;;;;;;4976537;28;20092;-77
2023/01/03 05:17:19;;;;;;;72.18;27.73;;;2.80;99.90;;;;;;4967284;28;20042;-78
2023/01/03 05:27:58;;;;;;;75.30;26.52;;;3.00;99.90;;;;;;4974702;28;20057;-77
2023/01/03 05:30:24;;;;;;;62.97;25.85;;;3.00;99.90;;;;;;4960590;28;20060;-77
2023/01/03 05:32:50;;;;;;;65.95;25.85;;;3.00;99.90;;;;;;4979628;28;20050;-79
2023/01/03 05:35:15;;;;;;;62.95;26.05;;;3.00;99.90;;;;;;4972688;28;20054;-80
2023/01/03 05:37:41;;;;;;;70.90;27.15;;;3.00;99.90;;;;;;4954694;28;20050;-79
2023/01/03 05:40:08;;;;;;;66.32;26.90;;;3.00;99.90;;;;;;4956810;28;20097;-77
2023/01/03 05:42:33;;;;;;;65.75;25.88;;;3.00;99.90;;;;;;4984675;28;20113;-77
2023/01/03 05:44:59;;;;;;;68.72;25.30;;;2.90;99.90;;;;;;4961846;28;20440;-77
2023/01/03 05:47:25;;;;;;;66.68;24.88;;;2.90;99.90;;;;;;4988707;28;20520;-77
2023/01/03 05:49:50;;;;;;;71.53;26.17;;;2.90;99.90;;;;;;4983734;28;20045;-78
2023/01/03 05:52:16;;;;;;;68.53;25.30;;;2.70;99.90;;;;;;4960287;28;20058;-78
2023/01/03 05:54:42;;;;;;;73.35;26.30;;;2.60;99.90;;;;;;4994747;28;20042;-78
2023/01/03 05:57:08;;;;;;;62.90;25.00;;;2.50;99.90;;;;;;4978631;28;20132;-77
2023/01/03 05:59:33;;;;;;;73.47;25.42;;;2.60;99.90;;;;;;4978895;28;20050;-77
2023/01/03 06:01:59;;;;;;;68.30;25.15;;;2.30;99.90;;;;;;4978992;28;20053;-77
2023/01/03 06:04:25;;;;;;;74.13;26.20;;;2.20;99.90;;;;;;4988375;28;20050;-78
2023/01/03 06:06:50;;;;;;;73.32;25.95;;;2.10;99.90;;;;;;4970338;28;20408;-77
2023/01/03 06:09:16;;;;;;;65.28;25.77;;;2.10;99.90;;;;;;4979117;28;20088;-77
2023/01/03 06:11:42;;;;;;;68.28;25.75;;;2.10;99.90;;;;;;5000015;28;20451;-79
2023/01/03 06:14:11;;;;;;;82.50;26.27;;;2.00;99.90;;;;;;4967640;28;20565;-78
2023/01/03 06:19:20;;;;;;;74.40;26.92;;;2.00;99.90;;;;;;4981377;28;20517;-78
2023/01/03 06:21:46;;;;;;;69.32;25.58;;;1.90;99.90;;;;;;4982984;28;20049;-77
2023/01/03 06:24:12;;;;;;;72.30;26.98;;;1.80;99.90;;;;;;4979170;28;20468;-77
2023/01/03 06:26:37;;;;;;;75.57;28.05;;;1.80;99.90;;;;;;4959195;28;20484;-78
2023/01/03 06:29:04;;;;;;;73.68;26.77;;;1.80;99.90;;;;;;4977593;28;20045;-78
2023/01/03 06:31:30;;;;;;;73.03;28.13;;;1.60;99.90;;;;;;4976067;28;20551;-80
2023/01/03 06:33:56;;;;;;;84.82;28.80;;;1.50;99.90;;;;;;4994434;28;20149;-77
2023/01/03 06:36:23;;;;;;;76.30;27.02;;;1.50;99.90;;;;;;4975570;28;20496;-77
2023/01/03 06:38:48;;;;;;;91.38;27.63;;;1.50;99.90;;;;;;4985412;28;20499;-78
2023/01/03 06:41:15;;;;;;;92.68;29.55;;;1.50;99.90;;;;;;4962251;28;20051;-79
2023/01/03 06:43:41;;;;;;;90.72;28.80;;;1.50;99.90;;;;;;4975005;28;20050;-80
2023/01/03 06:54:30;;;;;;;89.47;30.40;;;1.20;99.90;;;;;;4966660;28;20054;-80
2023/01/03 06:56:57;;;;;;;90.22;30.15;;;1.10;99.90;;;;;;4983061;28;20049;-78
2023/01/03 06:59:26;;;;;;;99.28;31.83;;;1.10;99.90;;;;;;4979803;28;20050;-78
2023/01/03 07:01:52;;;;;;;90.93;31.10;;;1.10;99.90;;;;;;4961775;28;20064;-80
2023/01/03 07:04:20;;;;;;;90.88;31.67;;;1.00;99.90;;;;;;4975531;28;20051;-81
2023/01/03 07:06:45;;;;;;;96.88;31.75;;;1.00;99.90;;;;;;4986780;28;20050;-81
2023/01/03 07:09:12;;;;;;;82.78;32.00;;;1.00;99.90;;;;;;4978975;28;20052;-79
2023/01/03 07:11:39;;;;;;;105.72;33.65;;;1.10;99.90;;;;;;4978064;28;20065;-82
2023/01/03 07:14:06;;;;;;;99.15;33.92;;;1.10;99.90;;;;;;4981771;28;20137;-78
2023/01/03 07:16:41;;;;;;;102.30;35.55;;;1.10;99.90;;;;;;4977701;28;20057;-79
2023/01/03 07:19:09;;;;;;;97.50;33.47;;;1.00;99.90;;;;;;4991206;28;20050;-76
2023/01/03 07:21:35;;;;;;;96.30;34.38;;;1.00;99.90;;;;;;4987481;28;20065;-78
2023/01/03 07:24:03;;;;;;;104.22;35.20;;;1.10;99.90;;;;;;4993869;28;20064;-76
2023/01/03 07:26:31;;;;;;;103.07;34.10;;;1.00;99.90;;;;;;4980517;28;20125;-76
2023/01/03 07:28:58;;;;;;;107.75;35.53;;;0.90;99.90;;;;;;4993447;28;20042;-78
2023/01/03 07:31:24;;;;;;;113.93;37.30;;;0.90;99.90;;;;;;4975721;28;20149;-78
2023/01/03 07:33:51;;;;;;;104.47;34.92;;;0.90;99.90;;;;;;4959170;28;20129;-78
2023/01/03 07:36:19;;;;;;;112.90;36.95;;;0.90;99.90;;;;;;4974050;28;20436;-79
2023/01/03 07:38:45;;;;;;;113.75;37.72;;;0.90;99.90;;;;;;4977383;28;20049;-84
2023/01/03 07:41:12;;;;;;;116.32;36.65;;;0.80;99.90;;;;;;4993602;28;20081;-78
2023/01/03 07:43:41;;;;;;;97.30;35.75;;;0.80;99.90;;;;;;4984161;28;20050;-79
2023/01/03 07:46:22;;;;;;;106.35;37.40;;;0.80;99.90;;;;;;5007025;28;20057;-78
2023/01/03 07:48:53;;;;;;;106.38;37.75;;;0.80;99.90;;;;;;4999858;28;20057;-78
2023/01/03 07:51:21;;;;;;;106.22;38.67;;;0.80;99.90;;;;;;4973976;28;20043;-78
2023/01/03 07:53:51;;;;;;;98.47;37.75;;;0.80;99.90;;;;;;4986968;28;20484;-86
2023/01/03 07:56:21;;;;;;;101.78;37.67;;;0.80;99.90;;;;;;4965321;28;20061;-78
2023/01/03 07:58:47;;;;;;;113.18;38.67;;;0.80;99.90;;;;;;4980229;28;20042;-85
2023/01/03 08:01:14;;;;;;;104.68;38.42;;;0.90;99.90;;;;;;4993401;28;20057;-78
2023/01/03 08:03:41;;;;;;;113.32;39.03;;;0.90;99.90;;;;;;4993202;28;20064;-80
2023/01/03 08:06:09;;;;;;;98.70;36.83;;;1.00;99.90;;;;;;4984970;28;20047;-81
2023/01/03 08:08:36;;;;;;;110.35;38.28;;;1.10;99.90;;;;;;5005325;28;20093;-78
2023/01/03 08:13:46;;;;;;;107.65;36.22;;;1.10;99.90;;;;;;4966977;28;20057;-78
2023/01/03 08:16:14;;;;;;;126.45;38.40;;;1.10;99.90;;;;;;4959883;28;20053;-78
2023/01/03 08:18:41;;;;;;;148.52;38.55;;;1.10;99.90;;;;;;4992943;28;20682;-79
2023/01/03 08:21:09;;;;;;;149.88;38.30;;;1.20;99.90;;;;;;4960679;28;20049;-78
2023/01/03 08:23:35;;;;;;;146.98;36.70;;;1.30;99.90;;;;;;4992937;28;20092;-78
2023/01/03 08:26:04;;;;;;;151.30;35.28;;;1.30;99.90;;;;;;4973737;28;20047;-78
2023/01/03 08:28:30;;;;;;;137.05;34.20;;;1.40;99.90;;;;;;4975496;28;20041;-77
2023/01/03 08:30:57;;;;;;;179.88;37.35;;;1.40;99.90;;;;;;4981687;28;20062;-79
2023/01/03 08:33:25;;;;;;;166.18;36.38;;;1.40;99.90;;;;;;4977189;28;20123;-78
2023/01/03 08:35:56;;;;;;;183.50;33.90;;;1.50;99.90;;;;;;4980768;28;20049;-84
2023/01/03 08:38:31;;;;;;;168.05;34.90;;;1.50;99.90;;;;;;4978173;28;20057;-79
2023/01/03 08:40:58;;;;;;;217.75;36.67;;;1.50;99.90;;;;;;4972421;28;20050;-78
2023/01/03 08:43:24;;;;;;;147.55;32.08;;;1.50;99.90;;;;;;4982472;28;20055;-79
2023/01/03 08:45:50;;;;;;;207.90;36.28;;;1.60;99.90;;;;;;4987509;28;20058;-78
2023/01/03 08:48:19;;;;;;;250.77;35.92;;;1.60;99.90;;;;;;4992452;28;20416;-79
2023/01/03 08:50:45;;;;;;;233.30;37.00;;;1.70;99.90;;;;;;4979242;28;20046;-78
2023/01/03 08:53:10;;;;;;;175.32;34.00;;;1.80;99.90;;;;;;4981551;28;20496;-80
2023/01/03 08:55:36;;;;;;;213.65;37.15;;;1.70;99.90;;;;;;4974911;28;20050;-78
2023/01/03 08:58:02;;;;;;;329.02;44.28;;;1.80;99.90;;;;;;4974916;28;20047;-79
2023/01/03 09:00:28;;;;;;;308.55;41.80;;;1.90;99.90;;;;;;4970580;28;20053;-78
2023/01/03 09:02:56;;;;;;;271.88;38.47;;;1.90;99.90;;;;;;4993906;28;20053;-78
2023/01/03 09:05:22;;;;;;;260.63;38.05;;;2.00;99.90;;;;;;4981359;28;20133;-78
2023/01/03 09:07:47;;;;;;;344.65;43.55;;;2.10;99.90;;;;;;4992798;28;20129;-79
2023/01/03 09:10:13;;;;;;;311.75;39.63;;;2.20;99.90;;;;;;4960049;28;20046;-78
2023/01/03 09:12:39;;;;;;;414.40;45.50;;;2.30;99.90;;;;;;4989328;28;20097;-78
2023/01/03 09:15:06;;;;;;;400.98;44.55;;;2.40;99.90;;;;;;4971244;28;20038;-79
2023/01/03 09:17:31;;;;;;;411.48;45.63;;;2.40;99.90;;;;;;4950366;28;20443;-78
2023/01/03 09:19:57;;;;;;;465.75;48.65;;;2.50;99.90;;;;;;4979364;28;20051;-82
2023/01/03 09:22:23;;;;;;;408.85;46.60;;;2.70;99.90;;;;;;4973631;28;20055;-78
2023/01/03 09:24:48;;;;;;;338.48;42.53;;;2.60;99.90;;;;;;4987995;28;20492;-79
2023/01/03 09:27:14;;;;;;;501.73;53.03;;;2.70;99.90;;;;;;4941561;28;20050;-78
2023/01/03 09:29:40;;;;;;;424.20;49.15;;;2.80;99.90;;;;;;4955625;28;20065;-79
2023/01/03 09:32:05;;;;;;;425.73;50.50;;;2.90;99.90;;;;;;4992963;28;20101;-78
2023/01/03 09:34:31;;;;;;;426.85;52.78;;;3.00;99.90;;;;;;4963575;28;20065;-78
2023/01/03 09:36:57;;;;;;;458.13;54.35;;;3.00;99.90;;;;;;4977105;28;20045;-78
2023/01/03 09:39:25;;;;;;;444.42;54.33;;;3.10;99.90;;;;;;4976359;28;20053;-78
2023/01/03 09:43:11;;;;;;;399.05;52.15;;;3.30;99.90;;;;;;4975309;28;20078;-78
2023/01/03 09:44:39;;;;;;;468.87;55.37;;;3.40;99.90;;;;;;4987345;28;20485;-79
2023/01/03 09:47:05;;;;;;;489.30;57.28;;;3.40;99.90;;;;;;4942705;28;20329;-78
2023/01/03 09:49:34;;;;;;;403.45;51.97;;;3.50;99.90;;;;;;4971605;28;20082;-80
2023/01/03 10:03:44;;;;;;;290.00;51.38;;;4.10;99.90;;;;;;4985442;28;20112;-78
2023/01/03 10:06:38;;;;;;;260.30;48.28;;;4.20;99.90;;;;;;4992263;28;20117;-78
2023/01/03 10:09:41;;;;;;;309.05;53.13;;;4.30;99.90;;;;;;4991990;28;20039;-83
2023/01/03 10:12:41;;;;;;;251.27;50.28;;;4.30;99.90;;;;;;4989678;28;20069;-80
2023/01/03 10:15:16;;;;;;;228.48;48.10;;;4.30;99.90;;;;;;4971372;28;20105;-84
2023/01/03 10:17:45;;;;;;;233.45;49.40;;;4.40;99.90;;;;;;4983060;28;20054;-79
2023/01/03 10:20:32;;;;;;;211.48;50.15;;;4.40;99.90;;;;;;4991481;28;20051;-78
2023/01/03 10:22:58;;;;;;;210.45;48.35;;;4.50;99.90;;;;;;4975681;28;20050;-80
2023/01/03 10:25:27;;;;;;;202.20;49.80;;;4.50;99.90;;;;;;4975381;28;20065;-79
2023/01/03 10:27:59;;;;;;;191.93;49.05;;;4.60;99.90;;;;;;4974481;28;20061;-80
2023/01/03 10:31:03;;;;;;;174.32;47.15;;;4.60;99.90;;;;;;4989517;28;20459;-78
2023/01/03 10:33:39;;;;;;;200.57;50.05;;;4.70;99.90;;;;;;4968219;28;20042;-78
2023/01/03 10:36:07;;;;;;;195.20;50.55;;;4.80;99.90;;;;;;4962645;28;20051;-78
2023/01/03 10:38:33;;;;;;;178.27;48.70;;;4.80;99.90;;;;;;4982275;28;20058;-79
2023/01/03 10:41:01;;;;;;;174.50;49.03;;;4.90;99.90;;;;;;4974264;28;20069;-78
2023/01/03 10:44:16;;;;;;;180.32;48.72;;;5.00;99.90;;;;;;4991432;28;20054;-77
2023/01/03 10:46:52;;;;;;;194.73;48.97;;;5.00;99.90;;;;;;4988027;28;20129;-79
2023/01/03 10:49:28;;;;;;;161.93;48.65;;;5.00;99.90;;;;;;4973363;28;20089;-78
2023/01/03 10:52:00;;;;;;;184.75;48.20;;;5.10;99.90;;;;;;4959219;28;20054;-79
2023/01/03 10:54:34;;;;;;;180.32;48.60;;;5.10;99.90;;;;;;4974270;28;20055;-78
2023/01/03 10:56:59;;;;;;;161.07;47.53;;;5.10;99.90;;;;;;4990379;28;20042;-77
2023/01/03 10:59:31;;;;;;;160.98;46.83;;;5.30;99.90;;;;;;4952720;28;20051;-78
2023/01/03 11:02:02;;;;;;;162.32;46.90;;;5.50;99.90;;;;;;4984639;28;20531;-80
2023/01/03 11:04:30;;;;;;;147.35;45.22;;;5.60;99.90;;;;;;4984113;28;20431;-78
2023/01/03 11:07:03;;;;;;;155.70;46.75;;;5.60;99.90;;;;;;4985643;28;20042;-76
2023/01/03 11:09:52;;;;;;;160.82;46.03;;;5.60;99.90;;;;;;4966496;28;20050;-77
2023/01/03 11:12:40;;;;;;;150.13;44.78;;;5.60;99.90;;;;;;4985951;28;20046;-79
2023/01/03 11:15:32;;;;;;;149.32;44.22;;;5.60;99.90;;;;;;4968166;28;20453;-78
2023/01/03 11:18:15;;;;;;;136.88;42.42;;;5.70;99.90;;;;;;4980639;28;20047;-78
2023/01/03 11:20:56;;;;;;;106.30;37.58;;;5.70;99.90;;;;;;4972915;28;20047;-80
2023/01/03 11:23:59;;;;;;;114.28;37.45;;;5.70;99.90;;;;;;4971729;28;20101;-78
2023/01/03 11:26:36;;;;;;;102.10;37.30;;;5.70;99.90;;;;;;4973763;28;20062;-80
2023/01/03 11:29:39;;;;;;;102.57;38.30;;;5.60;99.90;;;;;;4991322;28;20046;-78
2023/01/03 11:32:22;;;;;;;102.15;38.28;;;5.60;99.90;;;;;;4980102;28;20042;-79
2023/01/03 11:35:15;;;;;;;96.95;38.20;;;5.70;99.90;;;;;;4988160;28;20083;-79
2023/01/03 11:37:49;;;;;;;101.95;38.17;;;5.70;99.90;;;;;;4955128;28;20555;-79
2023/01/03 11:40:15;;;;;;;92.00;38.17;;;5.70;99.90;;;;;;4973010;28;20298;-77
2023/01/03 11:43:21;;;;;;;94.05;36.90;;;5.70;99.90;;;;;;4987627;28;20090;-80
2023/01/03 11:46:14;;;;;;;96.97;38.83;;;5.80;99.90;;;;;;4969899;28;20066;-80
2023/01/03 11:49:02;;;;;;;102.53;38.40;;;5.80;99.90;;;;;;4986523;28;20078;-78
2023/01/03 11:51:42;;;;;;;93.55;37.85;;;5.90;99.90;;;;;;4981345;28;20054;-79
2023/01/03 11:54:39;;;;;;;86.05;36.17;;;5.90;99.90;;;;;;4978093;28;20043;-78
2023/01/03 11:57:37;;;;;;;92.03;36.30;;;5.90;99.90;;;;;;4967824;28;20097;-78
2023/01/03 12:00:02;;;;;;;103.03;37.75;;;5.90;99.90;;;;;;4991515;28;20050;-79
2023/01/03 12:02:38;;;;;;;79.15;33.85;;;5.90;99.90;;;;;;4986239;28;20097;-77
2023/01/03 12:05:06;;;;;;;80.90;34.33;;;6.00;99.90;;;;;;4983744;28;20050;-78
2023/01/03 12:08:07;;;;;;;91.22;36.08;;;6.00;99.90;;;;;;4978415;28;20448;-81
2023/01/03 12:10:54;;;;;;;76.15;33.67;;;6.00;99.90;;;;;;4977321;28;20058;-79
2023/01/03 12:13:31;;;;;;;80.90;34.35;;;6.00;99.90;;;;;;4982107;28;20141;-83
2023/01/03 12:16:01;;;;;;;74.63;32.13;;;5.90;99.90;;;;;;4991259;28;20062;-80
2023/01/03 12:18:52;;;;;;;81.05;34.17;;;6.00;99.90;;;;;;4975480;28;20042;-79
2023/01/03 12:21:39;;;;;;;77.10;32.58;;;6.00;99.90;;;;;;4988232;28;20468;-78
2023/01/03 12:24:25;;;;;;;74.22;33.33;;;6.00;99.90;;;;;;4984438;28;20108;-78
2023/01/03 12:26:55;;;;;;;78.30;33.78;;;6.00;99.90;;;;;;4981607;28;20070;-78
2023/01/03 12:29:42;;;;;;;81.53;33.65;;;6.00;99.90;;;;;;4994222;28;20113;-78
2023/01/03 12:32:38;;;;;;;76.53;34.17;;;6.10;99.90;;;;;;4975089;28;20446;-78
2023/01/03 12:35:39;;;;;;;70.13;31.40;;;6.10;99.90;;;;;;4960317;28;20057;-78
2023/01/03 12:38:05;;;;;;;67.18;31.90;;;6.10;99.90;;;;;;4935876;29;20084;-80
2023/01/03 12:40:50;;;;;;;66.90;30.23;;;6.10;99.90;;;;;;4961585;28;20086;-80
2023/01/03 12:43:23;;;;;;;70.88;31.50;;;6.20;99.90;;;;;;4982468;28;20042;-80
2023/01/03 12:45:55;;;;;;;58.35;28.52;;;6.20;99.90;;;;;;4976982;28;20058;-79
2023/01/03 12:48:50;;;;;;;68.15;30.27;;;6.20;99.90;;;;;;4993882;28;20081;-78
2023/01/03 12:51:19;;;;;;;64.53;28.15;;;6.20;99.90;;;;;;4977337;28;20049;-80
2023/01/03 12:53:58;;;;;;;60.83;28.85;;;6.20;99.90;;;;;;4977535;28;20042;-79
2023/01/03 12:56:41;;;;;;;85.18;30.67;;;6.20;99.90;;;;;;4981964;28;20054;-77
2023/01/03 12:59:31;;;;;;;73.05;29.58;;;6.20;99.90;;;;;;4993776;28;20046;-78
2023/01/03 13:02:25;;;;;;;63.63;29.42;;;6.30;99.90;;;;;;4994114;28;20043;-78
2023/01/03 13:04:54;;;;;;;64.95;28.95;;;6.30;99.90;;;;;;4983387;28;20053;-78
2023/01/03 13:07:29;;;;;;;70.30;28.05;;;6.30;99.90;;;;;;4993431;28;20058;-80
2023/01/03 13:09:59;;;;;;;59.30;26.48;;;6.30;99.90;;;;;;4993294;28;20057;-78
2023/01/03 13:12:33;;;;;;;60.70;27.38;;;6.20;99.90;;;;;;4993707;28;20369;-78
2023/01/03 13:15:12;;;;;;;58.58;25.58;;;6.20;99.90;;;;;;4993225;28;20042;-79
2023/01/03 13:17:43;;;;;;;63.10;26.35;;;6.30;99.90;;;;;;4977000;28;20452;-80
2023/01/03 13:20:24;;;;;;;55.83;25.48;;;6.30;99.90;;;;;;4976131;28;20070;-79
2023/01/03 13:22:52;;;;;;;63.40;25.77;;;6.30;99.90;;;;;;4992985;28;20046;-79
2023/01/03 13:25:32;;;;;;;70.72;26.95;;;6.40;99.90;;;;;;4980196;28;20069;-79
2023/01/03 13:28:05;;;;;;;71.20;26.67;;;6.40;99.90;;;;;;4992217;28;20101;-78
2023/01/03 13:30:33;;;;;;;61.58;24.55;;;6.40;99.90;;;;;;4961158;28;20100;-79
2023/01/03 13:33:11;;;;;;;61.28;25.25;;;6.40;99.90;;;;;;4974613;28;20046;-78
2023/01/03 13:35:42;;;;;;;61.78;24.67;;;6.40;99.90;;;;;;4975750;28;20051;-78
2023/01/03 13:38:30;;;;;;;55.22;22.88;;;6.50;99.90;;;;;;4976867;28;20406;-77
2023/01/03 13:41:08;;;;;;;66.93;25.48;;;6.50;99.90;;;;;;4986149;28;20074;-78
2023/01/03 13:43:37;;;;;;;58.15;25.13;;;6.50;99.90;;;;;;4962757;28;20058;-82
2023/01/03 13:46:24;;;;;;;68.20;25.88;;;6.50;99.90;;;;;;4972697;28;20062;-78
2023/01/03 13:49:02;;;;;;;61.25;25.58;;;6.60;99.90;;;;;;4976668;28;20137;-78
2023/01/03 13:51:40;;;;;;;62.67;25.63;;;6.60;99.90;;;;;;4980857;28;20058;-79
2023/01/03 13:54:12;;;;;;;63.47;26.20;;;6.60;99.90;;;;;;4992760;28;20111;-79
2023/01/03 13:56:43;;;;;;;58.50;25.95;;;6.60;99.90;;;;;;4976492;28;20140;-83
2023/01/03 13:59:16;;;;;;;60.85;25.77;;;6.60;99.90;;;;;;4988641;28;20043;-79